createdAt,value
2023-01-13T07:36:50.827Z,-3.53
2023-01-13T07:39:18.014Z,-3.34
2023-01-13T07:42:09.191Z,-3.29
2023-01-13T07:44:37.777Z,-3.28
2023-01-13T07:47:05.993Z,-3.24
2023-01-13T07:49:42.492Z,-3.18
2023-01-13T07:52:11.418Z,-3.12
2023-01-13T07:54:42.079Z,-3.09
2023-01-13T07:57:17.874Z,-3.08
2023-01-13T07:59:45.298Z,-3.10
2023-01-13T08:02:13.678Z,-3.10
2023-01-13T08:04:44.523Z,-3.07
2023-01-13T08:07:14.267Z,-3.06
2023-01-13T08:09:42.249Z,-3.07
2023-01-13T08:12:28.549Z,-3.08
2023-01-13T08:14:59.315Z,-3.09
2023-01-13T08:17:27.715Z,-3.06
2023-01-13T08:20:02.163Z,-3.04
2023-01-13T08:22:36.362Z,-3.02
2023-01-13T08:25:08.140Z,-2.99
2023-01-13T08:27:39.526Z,-2.95
2023-01-13T08:30:11.496Z,-2.93
2023-01-13T08:32:47.400Z,-2.88
2023-01-13T08:35:17.299Z,-2.87
2023-01-13T08:37:52.996Z,-2.89
2023-01-13T08:40:22.357Z,-2.89
2023-01-13T08:45:45.045Z,-2.83
2023-01-13T08:48:21.333Z,-2.82
2023-01-13T08:51:25.141Z,-2.80
2023-01-13T08:54:02.829Z,-2.80
2023-01-13T08:56:50.904Z,-2.78
2023-01-13T08:59:25.874Z,-2.75
2023-01-13T09:02:01.550Z,-2.74
2023-01-13T09:04:41.822Z,-2.70
2023-01-13T09:07:15.401Z,-2.63
2023-01-13T09:09:51.846Z,-2.59
2023-01-13T09:12:56.677Z,-2.57
2023-01-13T09:15:39.997Z,-2.53
2023-01-13T09:18:17.805Z,-2.51
2023-01-13T09:20:52.251Z,-2.49
2023-01-13T09:23:29.630Z,-2.51
2023-01-13T09:26:04.339Z,-2.55
2023-01-13T09:28:33.252Z,-2.60
2023-01-13T09:31:02.025Z,-2.63
2023-01-13T09:33:53.189Z,-2.64
2023-01-13T09:36:22.569Z,-2.65
2023-01-13T09:38:54.381Z,-2.62
2023-01-13T09:41:41.913Z,-2.59
2023-01-13T09:44:25.388Z,-2.54
2023-01-13T09:46:55.895Z,-2.52
2023-01-13T09:49:27.173Z,-2.54
2023-01-13T09:52:17.835Z,-2.55
2023-01-13T09:55:22.313Z,-2.52
2023-01-13T09:57:52.150Z,-2.46
2023-01-13T10:00:29.192Z,-2.41
2023-01-13T10:03:02.277Z,-2.39
2023-01-13T10:05:50.967Z,-2.39
2023-01-13T10:08:29.510Z,-2.41
2023-01-13T10:11:01.009Z,-2.40
2023-01-13T10:13:37.355Z,-2.35
2023-01-13T10:16:23.177Z,-2.32
2023-01-13T10:22:52.608Z,-2.35
2023-01-13T10:26:02.656Z,-2.36
2023-01-13T10:28:44.772Z,-2.37
2023-01-13T10:31:31.045Z,-2.40
2023-01-13T10:34:05.965Z,-2.47
2023-01-13T10:36:35.767Z,-2.48
